La Porte, Indiana
Current Conditions -  °F | °C
As of 9:15 PM on Thursday 27 Nov 2014 (Local Time) from KPPO Reporting Station
Overcast Overcast  
Wind Chill: 18°   Ceiling: 3000
Heat Index: 25°   Visibility: 10mi
Dew Point: 15°   Wind: 6mph
Humidity: 65%   Direction: 290°WNW
Pressure: 30.38"   Gusts: NA
Location:  41.61°N, 86.72°W
Report Text: KPPO 280315Z AUTO 29005KT 10SM BKN030 OVC070 M04/M09 A3038 RMK AO2 T10381095
Loading
Personal Weather Stations






























Interactive Weather Map New forecast layout! Learn more

10-Day Weather Forecast

Advertisements
Track Severe Weather on mobile